Weather History for KSYF - November, 2013

Change the Weather History Date:

Monday, November 18, 2013

  Actual Average Record
Temperature  
Mean Temperature 41 °F -  
Max Temperature 60 °F 52 °F 60 °F (2013)
Min Temperature 22 °F 23 °F 9 °F (2014)
Degree Days  
Heating Degree Days 24    
Moisture  
Dew Point 13 °F    
Average Humidity 41    
Maximum Humidity 67    
Minimum Humidity 12    
Precipitation  
Precipitation 0.00 in - - ()
Sea Level Pressure  
Sea Level Pressure 30.11 in    
Wind  
Wind Speed 10 mph (SW)    
Max Wind Speed 24 mph    
Max Gust Speed 31 mph    
Visibility 10 miles    
Events      
Averages and records for this station are not official NWS values.
T = Trace of Precipitation, MM = Missing Value Source: NWS Daily Summary

Daily Weather History Graph

Daily Weather History Graph

Search for Another Location

Airport or City:

Trip Planner

Search our weather history database for the weather conditions in past years. The results will help you decide how hot, cold, wet, or windy it might be!

Date:

Astronomy

Nov. 18, 2013 Rise Set
Actual Time 7:35 AM CST 5:28 PM CST
Civil Twilight 7:06 AM CST 5:58 PM CST
Nautical Twilight 6:33 AM CST 6:30 PM CST
Astronomical Twilight 6:01 AM CST 7:02 PM CST
Moon 6:32 PM CST (11/18) 8:25 AM CST (11/18)
Length of Visible Light 10h 51m
Length of Day
9h 53m
Full, 99% of the Moon is Illuminated
Nov 18
Full
Nov 25
Last Quarter
Dec 2
New
Dec 9
First Quarter
Dec 17
Full

Hourly Weather History & Observations

Time (CST) Temp. Windchill Dew Point Humidity Pressure Visibility Wind Dir Wind Speed Gust Speed Precip Events Conditions
12:15 AM 26.6 °F 16.8 °F 12.4 °F 55% 30.12 in 10.0 mi SW 10.4 mph - N/A   Clear
12:35 AM 26.4 °F 16.6 °F 12.0 °F 55% 30.13 in 10.0 mi SW 10.4 mph - N/A   Clear
12:55 AM 25.7 °F 17.1 °F 12.2 °F 57% 30.13 in 10.0 mi SW 8.1 mph - N/A   Clear
1:15 AM 26.2 °F 16.4 °F 12.6 °F 56% 30.13 in 10.0 mi SW 10.4 mph - N/A   Clear
1:35 AM 25.7 °F 17.1 °F 12.4 °F 57% 30.12 in 10.0 mi SW 8.1 mph - N/A   Clear
1:55 AM 25.9 °F 18.2 °F 12.6 °F 57% 30.13 in 10.0 mi WSW 6.9 mph - N/A   Clear
2:15 AM 24.8 °F 16.1 °F 12.7 °F 60% 30.13 in 10.0 mi SW 8.1 mph - N/A   Clear
2:35 AM 24.3 °F 14.6 °F 13.1 °F 63% 30.14 in 10.0 mi SW 9.2 mph - N/A   Clear
2:55 AM 24.1 °F 15.2 °F 12.9 °F 62% 30.14 in 10.0 mi SW 8.1 mph - N/A   Clear
3:15 AM 25.0 °F 13.6 °F 13.1 °F 61% 30.14 in 10.0 mi SW 12.7 mph - N/A   Clear
3:35 AM 24.6 °F 15.1 °F 13.1 °F 62% 30.14 in 10.0 mi SW 9.2 mph - N/A   Clear
3:55 AM 24.1 °F 14.4 °F 13.1 °F 63% 30.14 in 10.0 mi SW 9.2 mph - N/A   Clear
4:15 AM 23.7 °F 14.7 °F 12.9 °F 63% 30.14 in 10.0 mi SW 8.1 mph - N/A   Clear
4:35 AM 23.9 °F 15.0 °F 12.7 °F 62% 30.14 in 10.0 mi SW 8.1 mph - N/A   Clear
4:55 AM 22.3 °F 12.2 °F 12.9 °F 67% 30.15 in 10.0 mi WSW 9.2 mph - N/A   Clear
5:15 AM 23.2 °F 14.1 °F 12.7 °F 64% 30.15 in 10.0 mi SW 8.1 mph - N/A   Clear
5:35 AM 23.7 °F 14.0 °F 12.9 °F 63% 30.15 in 10.0 mi SW 9.2 mph - N/A   Clear
5:55 AM 22.8 °F 14.5 °F 12.9 °F 66% 30.15 in 10.0 mi SW 6.9 mph - N/A   Clear
6:15 AM 23.5 °F 13.7 °F 12.7 °F 63% 30.14 in 10.0 mi SW 9.2 mph - N/A   Clear
6:35 AM 24.6 °F 16.7 °F 13.1 °F 62% 30.15 in 10.0 mi SW 6.9 mph - N/A   Clear
6:55 AM 23.7 °F 16.6 °F 12.9 °F 63% 30.15 in 10.0 mi SW 5.8 mph - N/A   Clear
7:15 AM 24.8 °F 16.9 °F 13.1 °F 61% 30.16 in 10.0 mi SSW 6.9 mph - N/A   Clear
7:35 AM 25.7 °F 18.0 °F 12.9 °F 58% 30.17 in 10.0 mi SSW 6.9 mph - N/A   Clear
7:55 AM 26.1 °F 18.4 °F 13.1 °F 58% 30.17 in 10.0 mi SSW 6.9 mph - N/A   Clear
8:15 AM 27.1 °F 23.2 °F 14.2 °F 58% 30.18 in 10.0 mi WSW 3.5 mph - N/A   Clear
8:35 AM 27.7 °F - 14.7 °F 58% 30.18 in 10.0 mi Calm Calm - N/A   Clear
8:55 AM 30.6 °F 25.8 °F 14.2 °F 51% 30.18 in 10.0 mi WSW 4.6 mph - N/A   Clear
9:15 AM 33.8 °F 27.0 °F 13.8 °F 44% 30.19 in 10.0 mi WSW 8.1 mph - N/A   Clear
9:35 AM 37.4 °F 32.1 °F 13.6 °F 38% 30.18 in 10.0 mi WSW 6.9 mph - N/A   Clear
9:55 AM 40.8 °F 36.9 °F 13.3 °F 33% 30.18 in 10.0 mi WSW 5.8 mph - N/A   Clear
10:15 AM 49.3 °F - 6.8 °F 18% 30.17 in 10.0 mi SW 18.4 mph 25.3 mph N/A   Clear
10:35 AM 51.1 °F - 4.5 °F 15% 30.17 in 10.0 mi SSW 20.7 mph 25.3 mph N/A   Clear
10:55 AM 52.5 °F - 5.0 °F 15% 30.17 in 10.0 mi SSW 24.2 mph 29.9 mph N/A   Clear
11:15 AM 53.4 °F - 4.1 °F 14% 30.17 in 10.0 mi SSW 24.2 mph 31.1 mph N/A   Clear
11:35 AM 54.5 °F - 4.5 °F 13% 30.16 in 10.0 mi SSW 21.9 mph 28.8 mph N/A   Clear
11:55 AM 55.2 °F - 4.6 °F 13% 30.15 in 10.0 mi SW 23.0 mph 27.6 mph N/A   Clear
12:15 PM 55.8 °F - 4.3 °F 13% 30.14 in 10.0 mi SW 20.7 mph - N/A   Clear
12:35 PM 57.2 °F - 4.6 °F 12% 30.12 in 10.0 mi SSW 21.9 mph 25.3 mph N/A   Clear
12:55 PM 57.6 °F - 5.2 °F 12% 30.12 in 10.0 mi SSW 19.6 mph 26.5 mph N/A   Clear
1:15 PM 57.9 °F - 8.1 °F 14% 30.10 in 10.0 mi SSW 19.6 mph 24.2 mph N/A   Clear
1:35 PM 58.3 °F - 8.6 °F 14% 30.10 in 10.0 mi SSW 19.6 mph 28.8 mph N/A   Clear
1:55 PM 59.4 °F - 10.4 °F 14% 30.09 in 10.0 mi SW 18.4 mph 23.0 mph N/A   Clear
2:15 PM 59.5 °F - 12.0 °F 15% 30.09 in 10.0 mi SSW 16.1 mph - N/A   Clear
2:35 PM 59.5 °F - 12.7 °F 16% 30.08 in 10.0 mi SW 12.7 mph 19.6 mph N/A   Clear
2:55 PM 60.1 °F - 12.7 °F 16% 30.08 in 10.0 mi SSW 15.0 mph 19.6 mph N/A   Clear
3:15 PM 60.1 °F - 12.7 °F 16% 30.07 in 10.0 mi SSW 12.7 mph - N/A   Clear
3:35 PM 59.9 °F - 13.1 °F 16% 30.07 in 10.0 mi SSW 12.7 mph 16.1 mph N/A   Clear
3:55 PM 59.5 °F - 13.5 °F 16% 30.06 in 10.0 mi SSW 15.0 mph - N/A   Clear
4:15 PM 59.0 °F - 14.0 °F 17% 30.06 in 10.0 mi SSW 13.8 mph - N/A   Clear
4:35 PM 58.1 °F - 14.0 °F 18% 30.05 in 10.0 mi SSW 11.5 mph - N/A   Clear
4:55 PM 55.8 °F - 14.7 °F 20% 30.06 in 10.0 mi SSW 8.1 mph - N/A   Clear
5:15 PM 50.0 °F - 16.5 °F 26% 30.05 in 10.0 mi South 9.2 mph - N/A   Clear
5:35 PM 46.4 °F 41.9 °F 16.7 °F 31% 30.05 in 10.0 mi South 9.2 mph - N/A   Clear
5:55 PM 44.4 °F 38.2 °F 17.2 °F 34% 30.05 in 10.0 mi South 12.7 mph - N/A   Clear
6:15 PM 45.5 °F 39.9 °F 15.8 °F 30% 30.06 in 10.0 mi South 11.5 mph - N/A   Clear
6:35 PM 42.6 °F 35.9 °F 15.3 °F 33% 30.07 in 10.0 mi South 12.7 mph - N/A   Clear
6:55 PM 41.5 °F 35.4 °F 15.4 °F 35% 30.07 in 10.0 mi South 10.4 mph - N/A   Clear
7:15 PM 39.4 °F 33.2 °F 15.8 °F 38% 30.07 in 10.0 mi South 9.2 mph - N/A   Clear
7:35 PM 40.6 °F 36.0 °F 15.3 °F 36% 30.07 in 10.0 mi SSW 6.9 mph - N/A   Clear
7:55 PM 40.3 °F 33.4 °F 14.9 °F 36% 30.07 in 10.0 mi South 11.5 mph - N/A   Clear
8:15 PM 39.7 °F 32.3 °F 14.7 °F 36% 30.07 in 10.0 mi South 12.7 mph - N/A   Clear
8:35 PM 37.0 °F 32.4 °F 15.4 °F 41% 30.07 in 10.0 mi SSW 5.8 mph - N/A   Clear
8:55 PM 34.3 °F 28.4 °F 15.8 °F 47% 30.08 in 10.0 mi SW 6.9 mph - N/A   Clear
9:15 PM 35.2 °F 28.8 °F 15.8 °F 45% 30.07 in 10.0 mi SSW 8.1 mph - N/A   Clear
9:35 PM 33.8 °F 27.7 °F 15.6 °F 47% 30.08 in 10.0 mi WSW 6.9 mph - N/A   Clear
9:55 PM 32.4 °F 24.6 °F 15.8 °F 51% 30.08 in 10.0 mi WSW 9.2 mph - N/A   Clear
10:15 PM 32.7 °F 26.4 °F 15.8 °F 50% 30.08 in 10.0 mi SSW 6.9 mph - N/A   Clear
10:35 PM 31.3 °F 23.9 °F 15.8 °F 53% 30.08 in 10.0 mi SW 8.1 mph - N/A   Clear
10:55 PM 32.0 °F 24.2 °F 15.6 °F 51% 30.08 in 10.0 mi SW 9.2 mph - N/A   Clear
11:15 PM 32.9 °F 25.9 °F 15.6 °F 49% 30.07 in 10.0 mi SW 8.1 mph - N/A   Clear
11:35 PM 32.2 °F 24.4 °F 15.4 °F 50% 30.07 in 10.0 mi SW 9.2 mph - N/A   Clear
11:55 PM 31.8 °F 24.6 °F 15.4 °F 51% 30.06 in 10.0 mi SW 8.1 mph - N/A   Clear